Tylertown, MS (39667)

11:34 PM CST on December 02, 2016 (GMT -0600)
Smithburg Rd | | Change Station

Elev 300 ft 31.03 °N, 90.28 °W | Updated 4 minutes ago

Overcast
Overcast
52.6 °F
Feels Like 52.6 °F
N
3.0
Wind Variable Wind from NE
Gusts 3.0 mph

Today
High -- | Low -- °F
--% Chance of Precip.
Yesterday
High -- | Low -- °F
Precip. -- in
Pressure 30.20 in
Visibility 10.0 miles
Clouds Few 5500 ft
Mostly Cloudy 7500 ft
Overcast 10000 ft
Dew Point 44 °F
Humidity 71%
Rainfall 0.00 in
Snow Depth Not available.
6:42 AM 4:57 PM
Waxing Crescent, 12% visible
METAR KMCB 030453Z AUTO 10004KT 10SM FEW055 BKN075 OVC100 12/03 A3020 RMK AO2 RAE04 SLP225 P0000 T01220028
Pressure 30.20 in
Visibility 10.0 miles
Clouds Few 5500 ft
Mostly Cloudy 7500 ft
Overcast 10000 ft
Dew Point 44 °F
Humidity 71%
Rainfall 0.00 in
Snow Depth Not available.
6:42 AM 4:57 PM
Waxing Crescent, 12% visible
METAR KMCB 030453Z AUTO 10004KT 10SM FEW055 BKN075 OVC100 12/03 A3020 RMK AO2 RAE04 SLP225 P0000 T01220028

10-Day Weather Forecast

Almanac

Astronomy

Dec. 02, 2016 Rise Set
Actual Time
Civil Twilight
Nautical Twilight
Astronomical Twilight
Moon
Length of Visible Light
Length of Day
Tomorrow will be .
, % of the Moon is Illuminated

Today's Extremes

State Highs State Lows

Community

WunderPhotos

Upload Photos

1,955,413 photos uploaded!

WunderBlog® & News

Nearby

Air Quality

  Air Quality AQ Index Pollutant
Not available.

Snow Depth

Station Depth Elevation

Earthquake Activity

City Distance Mag. Time & Date
Minimum magnitude displayed is 2.5.

Coastal Water Temperatures

Place Temperature

Stations

Nearby Weather Stations

Station Location Temp. Windchill Dew Point Humidity Wind Precip. Elev Updated Type
                   

Watches & Warnings

There are currently no watches in effect.